createdAt,value
2017-02-13T00:00:12.520Z,51.20
2017-02-13T00:01:11.569Z,51.20
2017-02-13T00:02:12.436Z,51.40
2017-02-13T00:03:12.215Z,51.40
2017-02-13T00:04:12.260Z,51.30
2017-02-13T00:05:13.412Z,51.50
2017-02-13T00:06:12.141Z,51.60
2017-02-13T00:07:13.876Z,51.50
2017-02-13T00:08:10.719Z,is
2017-02-13T00:09:12.065Z,51.40
2017-02-13T00:10:12.292Z,51.40
2017-02-13T00:11:13.105Z,51.20
2017-02-13T00:12:12.222Z,51.10
2017-02-13T00:13:12.786Z,51.30
2017-02-13T00:14:10.373Z,is
2017-02-13T00:15:12.291Z,51.70
2017-02-13T00:16:13.043Z,51.50
2017-02-13T00:17:12.615Z,51.10
2017-02-13T00:18:12.291Z,51.30
2017-02-13T00:19:14.399Z,51.50
2017-02-13T00:20:11.641Z,51.40
2017-02-13T00:21:11.832Z,51.10
2017-02-13T00:22:13.218Z,51.40
2017-02-13T00:23:12.888Z,51.30
2017-02-13T00:24:11.785Z,51.10
2017-02-13T00:25:13.721Z,51.60
2017-02-13T00:26:11.585Z,51.40
2017-02-13T00:27:12.404Z,51.40
2017-02-13T00:28:11.645Z,51.50
2017-02-13T00:29:13.555Z,52.00
2017-02-13T00:30:12.096Z,52.10
2017-02-13T00:31:12.804Z,51.60
2017-02-13T00:32:12.514Z,51.40
2017-02-13T00:33:12.208Z,51.80
2017-02-13T00:34:12.754Z,51.50
2017-02-13T00:35:11.726Z,51.50
2017-02-13T00:36:12.579Z,51.40
2017-02-13T00:37:12.250Z,51.40
2017-02-13T00:38:12.295Z,51.40
2017-02-13T00:39:13.689Z,51.50
2017-02-13T00:40:12.067Z,51.40
2017-02-13T00:41:14.621Z,51.40
2017-02-13T00:42:12.285Z,51.70
2017-02-13T00:43:13.313Z,51.50
2017-02-13T00:44:13.485Z,51.70
2017-02-13T00:45:11.725Z,51.60
2017-02-13T00:46:11.835Z,51.30
2017-02-13T00:47:12.513Z,51.30
2017-02-13T00:48:11.577Z,51.60
2017-02-13T00:49:13.136Z,51.20
2017-02-13T00:50:12.293Z,51.50
2017-02-13T00:51:13.460Z,51.50
2017-02-13T00:52:13.103Z,51.40
2017-02-13T00:53:13.436Z,51.40
2017-02-13T00:54:11.530Z,51.60
2017-02-13T00:55:14.754Z,51.40
2017-02-13T00:56:11.724Z,51.50
2017-02-13T00:57:09.147Z,is
2017-02-13T00:58:12.082Z,52.40
2017-02-13T00:59:12.498Z,52.50
2017-02-13T01:00:14.436Z,52.50
2017-02-13T01:01:13.282Z,52.00
2017-02-13T01:02:12.945Z,52.00
2017-02-13T01:03:13.672Z,51.90
2017-02-13T01:04:14.127Z,51.70
2017-02-13T01:05:11.863Z,51.90
2017-02-13T01:06:13.167Z,51.70
2017-02-13T01:07:13.222Z,51.70
2017-02-13T01:08:11.515Z,51.80
2017-02-13T01:09:14.083Z,51.80
2017-02-13T01:10:14.486Z,51.50
2017-02-13T01:11:12.467Z,51.60
2017-02-13T01:12:14.935Z,51.70
2017-02-13T01:13:12.835Z,51.50
2017-02-13T01:14:11.867Z,51.50
2017-02-13T01:15:13.744Z,51.80
2017-02-13T01:16:12.956Z,51.60
2017-02-13T01:17:15.364Z,51.70
2017-02-13T01:18:13.596Z,51.60
2017-02-13T01:19:15.112Z,51.60
2017-02-13T01:20:14.125Z,51.50
2017-02-13T01:21:12.114Z,51.50
2017-02-13T01:22:12.173Z,51.40
2017-02-13T01:23:13.545Z,51.20
2017-02-13T01:24:12.413Z,51.30
2017-02-13T01:25:12.447Z,51.50
2017-02-13T01:26:11.920Z,51.30
2017-02-13T01:27:14.235Z,51.20
2017-02-13T01:28:12.985Z,51.30
2017-02-13T01:29:14.485Z,51.30
2017-02-13T01:30:12.711Z,51.10
2017-02-13T01:31:13.545Z,51.50
2017-02-13T01:32:12.088Z,51.10
2017-02-13T01:33:12.964Z,51.40
2017-02-13T01:34:14.045Z,51.20
2017-02-13T01:35:13.287Z,51.50
2017-02-13T01:36:14.973Z,51.50
2017-02-13T01:37:11.884Z,51.40
2017-02-13T01:38:13.839Z,51.00
2017-02-13T01:39:11.854Z,51.10
2017-02-13T01:40:13.426Z,51.10
2017-02-13T01:41:13.676Z,51.00
2017-02-13T01:42:12.399Z,51.40
2017-02-13T01:43:12.424Z,51.30
2017-02-13T01:44:12.522Z,51.40
2017-02-13T01:45:12.551Z,51.70
2017-02-13T01:46:11.571Z,51.80
2017-02-13T01:47:13.745Z,51.70
2017-02-13T01:48:10.647Z,is
2017-02-13T01:49:12.391Z,51.20
2017-02-13T01:50:12.094Z,51.30
2017-02-13T01:51:11.494Z,51.30
2017-02-13T01:52:12.212Z,51.00
2017-02-13T01:53:13.896Z,51.10
2017-02-13T01:54:13.032Z,51.30
2017-02-13T01:55:12.915Z,51.40
2017-02-13T01:56:14.095Z,51.30
2017-02-13T01:57:12.265Z,51.00
2017-02-13T01:58:12.588Z,51.00
2017-02-13T01:59:14.295Z,51.20
2017-02-13T02:00:13.101Z,51.30
2017-02-13T02:01:12.082Z,51.30
2017-02-13T02:02:12.419Z,51.20
2017-02-13T02:03:12.929Z,51.50
2017-02-13T02:04:11.839Z,51.20
2017-02-13T02:05:14.106Z,51.20
2017-02-13T02:06:11.007Z,is
2017-02-13T02:07:13.484Z,51.10
2017-02-13T02:08:11.403Z,51.20
2017-02-13T02:09:12.255Z,51.20
2017-02-13T02:10:12.101Z,51.20
2017-02-13T02:11:12.123Z,51.10
2017-02-13T02:12:13.336Z,51.40
2017-02-13T02:13:13.003Z,51.20
2017-02-13T02:14:14.474Z,51.30
2017-02-13T02:15:11.810Z,51.00
2017-02-13T02:16:12.478Z,51.20
2017-02-13T02:17:12.446Z,51.00
2017-02-13T02:18:12.088Z,51.30
2017-02-13T02:19:12.561Z,51.20
2017-02-13T02:20:11.887Z,51.40
2017-02-13T02:21:13.571Z,51.40
2017-02-13T02:22:11.723Z,51.00
2017-02-13T02:23:13.537Z,51.30
2017-02-13T02:24:11.597Z,51.30
2017-02-13T02:25:12.815Z,51.20
2017-02-13T02:26:13.294Z,51.20
2017-02-13T02:27:12.437Z,51.20
2017-02-13T02:28:12.275Z,51.50
2017-02-13T02:29:12.325Z,51.40
2017-02-13T02:30:12.175Z,51.20
2017-02-13T02:31:13.726Z,51.20
2017-02-13T02:32:11.704Z,51.10
2017-02-13T02:33:12.472Z,51.20
2017-02-13T02:34:11.638Z,51.10
2017-02-13T02:35:13.622Z,51.10
2017-02-13T02:36:11.747Z,51.30
2017-02-13T02:37:13.865Z,51.30
2017-02-13T02:38:12.697Z,51.60
2017-02-13T02:39:12.513Z,51.80
2017-02-13T02:40:13.749Z,51.40
2017-02-13T02:41:11.637Z,51.30
2017-02-13T02:42:12.716Z,51.70
2017-02-13T02:43:09.915Z,is
2017-02-13T02:44:13.192Z,51.30
2017-02-13T02:45:12.353Z,51.00
2017-02-13T02:46:12.518Z,51.50
2017-02-13T02:47:11.672Z,51.50
2017-02-13T02:48:12.267Z,51.40
2017-02-13T02:49:12.378Z,51.70
2017-02-13T02:50:09.839Z,is
2017-02-13T02:51:12.805Z,52.10
2017-02-13T02:52:11.858Z,52.10
2017-02-13T02:53:13.657Z,52.00
2017-02-13T02:54:12.465Z,51.90
2017-02-13T02:55:13.025Z,52.00
2017-02-13T02:56:13.352Z,51.90
2017-02-13T02:57:12.466Z,51.80
2017-02-13T02:58:12.273Z,51.70
2017-02-13T02:59:12.503Z,51.90
2017-02-13T03:00:09.703Z,is
2017-02-13T03:01:12.831Z,51.90
2017-02-13T03:02:11.764Z,52.00
2017-02-13T03:03:12.805Z,52.00
2017-02-13T03:04:11.702Z,52.20
2017-02-13T03:05:12.476Z,52.10
2017-02-13T03:06:12.084Z,52.10
2017-02-13T03:07:13.174Z,52.00
2017-02-13T03:08:14.788Z,52.10
2017-02-13T03:09:15.348Z,52.00
2017-02-13T03:10:12.091Z,52.00
2017-02-13T03:11:13.017Z,52.00
2017-02-13T03:12:12.321Z,52.00
2017-02-13T03:13:13.381Z,52.10
2017-02-13T03:14:12.093Z,52.10
2017-02-13T03:15:10.502Z,is
2017-02-13T03:16:11.887Z,52.20
2017-02-13T03:17:13.382Z,52.10
2017-02-13T03:18:09.773Z,is
2017-02-13T03:19:11.603Z,52.30
2017-02-13T03:20:12.398Z,52.20
2017-02-13T03:21:12.256Z,52.20
2017-02-13T03:22:12.562Z,52.00
2017-02-13T03:23:11.842Z,52.20
2017-02-13T03:24:12.089Z,52.50
2017-02-13T03:25:10.549Z,is
2017-02-13T03:26:11.919Z,52.10
2017-02-13T03:27:12.835Z,52.00
2017-02-13T03:28:14.236Z,51.90
2017-02-13T03:29:13.072Z,51.90
2017-02-13T03:30:14.677Z,51.70
2017-02-13T03:31:12.535Z,51.70
2017-02-13T03:32:12.601Z,51.50
2017-02-13T03:33:11.823Z,51.60
2017-02-13T03:34:12.430Z,51.60
2017-02-13T03:35:11.449Z,51.60
2017-02-13T03:36:09.575Z,is
2017-02-13T03:37:12.506Z,51.50
2017-02-13T03:38:12.148Z,51.60
2017-02-13T03:39:12.216Z,51.80
2017-02-13T03:40:12.295Z,51.40
2017-02-13T03:41:12.311Z,51.20
2017-02-13T03:42:12.311Z,51.50
2017-02-13T03:43:12.446Z,51.50
2017-02-13T03:44:10.208Z,is
2017-02-13T03:45:13.376Z,51.50
2017-02-13T03:46:11.516Z,51.50
2017-02-13T03:47:11.961Z,51.50
2017-02-13T03:48:14.193Z,51.50
2017-02-13T03:49:12.365Z,51.40
2017-02-13T03:50:12.484Z,51.40
2017-02-13T03:51:13.021Z,51.20
2017-02-13T03:52:12.266Z,51.40
2017-02-13T03:53:12.269Z,51.20
2017-02-13T03:54:13.111Z,51.30
2017-02-13T03:55:12.100Z,51.20
2017-02-13T03:56:09.945Z,is
2017-02-13T03:57:12.988Z,51.20
2017-02-13T03:58:12.172Z,51.30
2017-02-13T03:59:12.891Z,51.60
2017-02-13T04:00:11.956Z,51.40
2017-02-13T04:01:12.848Z,51.60
2017-02-13T04:02:10.533Z,is
2017-02-13T04:03:13.604Z,52.50
2017-02-13T04:04:12.636Z,52.20
2017-02-13T04:05:13.085Z,51.70
2017-02-13T04:06:12.717Z,51.60
2017-02-13T04:07:11.747Z,51.80
2017-02-13T04:08:12.508Z,51.50
2017-02-13T04:09:11.600Z,51.40
2017-02-13T04:10:13.035Z,51.50
2017-02-13T04:11:12.267Z,51.40
2017-02-13T04:12:12.283Z,51.50
2017-02-13T04:13:13.133Z,51.30
2017-02-13T04:14:12.261Z,51.00
2017-02-13T04:15:13.421Z,51.00
2017-02-13T04:16:12.264Z,51.30
2017-02-13T04:17:13.579Z,51.40
2017-02-13T04:18:11.999Z,51.10
2017-02-13T04:19:12.091Z,51.10
2017-02-13T04:20:12.146Z,51.10
2017-02-13T04:21:12.292Z,51.00
2017-02-13T04:22:12.296Z,is
2017-02-13T04:23:13.369Z,50.90
2017-02-13T04:24:12.318Z,51.20
2017-02-13T04:25:11.032Z,is
2017-02-13T04:26:10.074Z,is
2017-02-13T04:27:11.528Z,50.80
2017-02-13T04:28:12.281Z,51.00
2017-02-13T04:29:12.276Z,51.10
2017-02-13T04:30:09.476Z,is
2017-02-13T04:31:11.898Z,51.30
2017-02-13T04:32:12.576Z,51.30
2017-02-13T04:33:11.642Z,51.40
2017-02-13T04:34:12.306Z,51.30
2017-02-13T04:35:12.936Z,51.10
2017-02-13T04:36:12.123Z,51.30
2017-02-13T04:37:13.657Z,51.00
2017-02-13T04:38:11.665Z,50.80
2017-02-13T04:39:12.931Z,51.10
2017-02-13T04:40:12.795Z,51.00
2017-02-13T04:41:10.270Z,is
2017-02-13T04:42:13.624Z,51.40
2017-02-13T04:43:12.482Z,51.30
2017-02-13T04:44:12.088Z,51.20
2017-02-13T04:45:13.366Z,51.40
2017-02-13T04:46:13.235Z,51.30
2017-02-13T04:47:12.334Z,51.30
2017-02-13T04:48:13.278Z,51.20
2017-02-13T04:49:12.271Z,51.10
2017-02-13T04:50:12.223Z,51.50
2017-02-13T04:51:12.894Z,51.30
2017-02-13T04:52:12.492Z,51.50
2017-02-13T04:53:12.675Z,51.40
2017-02-13T04:54:10.587Z,is
2017-02-13T04:55:11.490Z,51.30
2017-02-13T04:56:12.293Z,51.20
2017-02-13T04:57:13.862Z,51.50
2017-02-13T04:58:12.604Z,51.50
2017-02-13T04:59:12.384Z,51.30
2017-02-13T05:00:11.933Z,51.50
2017-02-13T05:01:12.764Z,51.60
2017-02-13T05:02:11.763Z,51.50
2017-02-13T05:03:11.903Z,51.50
2017-02-13T05:04:13.053Z,51.50
2017-02-13T05:05:10.729Z,is
2017-02-13T05:06:13.026Z,51.30
2017-02-13T05:07:13.745Z,51.70
2017-02-13T05:08:12.486Z,51.60
2017-02-13T05:09:12.357Z,51.70
2017-02-13T05:10:12.125Z,51.60
2017-02-13T05:11:13.196Z,51.30
2017-02-13T05:12:12.286Z,51.60
2017-02-13T05:13:11.016Z,is
2017-02-13T05:14:12.093Z,51.80
2017-02-13T05:15:12.296Z,51.60
2017-02-13T05:16:12.438Z,51.50
2017-02-13T05:17:12.604Z,51.60
2017-02-13T05:18:13.761Z,51.60
2017-02-13T05:19:14.325Z,51.00
2017-02-13T05:20:12.258Z,51.30
2017-02-13T05:21:12.332Z,51.40
2017-02-13T05:22:12.572Z,51.50
2017-02-13T05:23:13.534Z,51.50
2017-02-13T05:24:12.429Z,51.70
2017-02-13T05:25:11.698Z,is
2017-02-13T05:26:13.025Z,51.90
2017-02-13T05:27:13.139Z,51.50
2017-02-13T05:28:13.294Z,51.40
2017-02-13T05:29:12.302Z,51.40
2017-02-13T05:30:13.356Z,51.40
2017-02-13T05:31:12.991Z,51.40
2017-02-13T05:32:12.101Z,51.40
2017-02-13T05:33:12.775Z,51.70
2017-02-13T05:34:11.821Z,51.50
2017-02-13T05:35:12.029Z,51.40
2017-02-13T05:36:12.861Z,52.50
2017-02-13T05:37:13.027Z,52.50
2017-02-13T05:38:13.054Z,52.20
2017-02-13T05:39:12.263Z,51.70
2017-02-13T05:40:13.393Z,51.60
2017-02-13T05:41:13.585Z,51.50
2017-02-13T05:42:12.000Z,51.50
2017-02-13T05:43:14.872Z,51.30
2017-02-13T05:44:10.735Z,is
2017-02-13T05:45:12.752Z,51.10
2017-02-13T05:46:12.841Z,51.20
2017-02-13T05:47:13.830Z,51.40
2017-02-13T05:48:11.870Z,51.30
2017-02-13T05:49:12.034Z,50.70
2017-02-13T05:50:12.236Z,50.90
2017-02-13T05:51:12.363Z,50.90
2017-02-13T05:52:11.295Z,50.90
2017-02-13T05:53:13.022Z,51.10
2017-02-13T05:54:12.983Z,51.00
2017-02-13T05:55:11.918Z,51.10
2017-02-13T05:56:12.128Z,50.90
2017-02-13T05:57:12.763Z,51.00
2017-02-13T05:58:13.405Z,51.00
2017-02-13T05:59:11.536Z,50.80
2017-02-13T06:00:12.766Z,50.80
2017-02-13T06:01:11.735Z,51.10
2017-02-13T06:02:12.564Z,51.20
2017-02-13T06:03:11.549Z,51.00
2017-02-13T06:04:11.480Z,51.10
2017-02-13T06:05:12.043Z,51.10
2017-02-13T06:06:12.101Z,51.30
2017-02-13T06:07:13.365Z,51.20
2017-02-13T06:08:13.339Z,51.30
2017-02-13T06:09:12.757Z,51.60
2017-02-13T06:10:12.150Z,51.70
2017-02-13T06:11:14.492Z,52.20
2017-02-13T06:12:10.390Z,is
2017-02-13T06:13:11.613Z,is
2017-02-13T06:14:10.661Z,is
2017-02-13T06:15:10.464Z,is
2017-02-13T06:16:13.641Z,51.40
2017-02-13T06:17:12.085Z,51.20
2017-02-13T06:18:12.950Z,51.80
2017-02-13T06:19:12.096Z,51.50
2017-02-13T06:20:13.093Z,51.40
2017-02-13T06:21:13.323Z,51.60
2017-02-13T06:22:12.501Z,51.50
2017-02-13T06:23:12.289Z,51.50
2017-02-13T06:24:12.324Z,51.70
2017-02-13T06:25:12.811Z,51.50
2017-02-13T06:26:11.883Z,51.60
2017-02-13T06:27:11.890Z,51.60
2017-02-13T06:28:13.067Z,51.70
2017-02-13T06:29:12.744Z,51.50
2017-02-13T06:30:12.564Z,52.20
2017-02-13T06:31:11.513Z,52.30
2017-02-13T06:32:11.664Z,52.70
2017-02-13T06:33:12.545Z,52.50
2017-02-13T06:34:12.552Z,52.00
2017-02-13T06:35:11.558Z,52.00
2017-02-13T06:36:12.267Z,51.90
2017-02-13T06:37:12.721Z,52.00
2017-02-13T06:38:11.770Z,52.00
2017-02-13T06:39:11.885Z,51.70
2017-02-13T06:40:12.835Z,52.00
2017-02-13T06:41:12.501Z,52.00
2017-02-13T06:42:12.263Z,51.60
2017-02-13T06:43:14.124Z,52.00
2017-02-13T06:44:12.700Z,52.20
2017-02-13T06:45:11.713Z,52.10
2017-02-13T06:46:11.890Z,52.30
2017-02-13T06:47:13.754Z,52.50
2017-02-13T06:48:12.702Z,52.50
2017-02-13T06:49:13.495Z,52.60
2017-02-13T06:50:11.672Z,52.40
2017-02-13T06:51:13.567Z,53.00
2017-02-13T06:52:12.893Z,53.00
2017-02-13T06:53:12.650Z,53.10
2017-02-13T06:54:11.721Z,53.00
2017-02-13T06:55:11.718Z,52.30
2017-02-13T06:56:12.501Z,52.00
2017-02-13T06:57:11.865Z,51.70
2017-02-13T06:58:12.629Z,51.90
2017-02-13T06:59:11.701Z,52.10
2017-02-13T07:00:10.672Z,is
2017-02-13T07:01:11.914Z,51.50
2017-02-13T07:02:12.515Z,51.40
2017-02-13T07:03:13.274Z,51.30
2017-02-13T07:04:11.088Z,is
2017-02-13T07:05:10.775Z,is
2017-02-13T07:06:12.838Z,51.50
2017-02-13T07:07:13.437Z,51.50
2017-02-13T07:08:10.190Z,is
2017-02-13T07:09:11.502Z,51.30
2017-02-13T07:10:12.090Z,51.30
2017-02-13T07:11:13.215Z,51.40
2017-02-13T07:12:13.038Z,51.70
2017-02-13T07:13:13.085Z,51.40
2017-02-13T07:14:11.036Z,is
2017-02-13T07:15:13.450Z,51.30
2017-02-13T07:16:12.100Z,51.30
2017-02-13T07:17:10.571Z,is
2017-02-13T07:18:12.331Z,51.30
2017-02-13T07:19:12.937Z,48.30
2017-02-13T07:20:12.099Z,37.10
2017-02-13T07:21:12.302Z,33.50
2017-02-13T07:22:12.396Z,36.00
2017-02-13T07:23:11.546Z,41.40
2017-02-13T07:24:11.579Z,38.50
2017-02-13T07:25:11.752Z,37.50
2017-02-13T07:26:12.481Z,39.80
2017-02-13T07:27:12.466Z,41.80
2017-02-13T07:28:12.984Z,43.80
2017-02-13T07:29:12.557Z,44.00
2017-02-13T07:30:12.082Z,45.10
2017-02-13T07:31:13.067Z,44.80
2017-02-13T07:32:12.866Z,45.00
2017-02-13T07:33:12.070Z,44.90
2017-02-13T07:34:13.163Z,44.80
2017-02-13T07:35:12.480Z,44.50
2017-02-13T07:36:11.553Z,45.00
2017-02-13T07:37:12.447Z,45.80
2017-02-13T07:38:11.899Z,45.50
2017-02-13T07:39:13.818Z,46.00
2017-02-13T07:40:11.793Z,46.10
2017-02-13T07:41:11.925Z,46.50
2017-02-13T07:42:12.047Z,46.70
2017-02-13T07:43:12.897Z,46.10
2017-02-13T07:44:11.932Z,46.10
2017-02-13T07:45:13.031Z,45.80
2017-02-13T07:46:14.611Z,45.50
2017-02-13T07:47:12.284Z,45.30
2017-02-13T07:48:13.039Z,45.70
2017-02-13T07:49:12.069Z,45.40
2017-02-13T07:50:12.863Z,45.70
2017-02-13T07:51:11.853Z,45.60
2017-02-13T07:52:12.086Z,45.90
2017-02-13T07:53:13.056Z,46.40
2017-02-13T07:54:12.231Z,46.60
2017-02-13T07:55:14.285Z,46.60
2017-02-13T07:56:11.482Z,is
2017-02-13T07:57:12.262Z,46.50
2017-02-13T07:58:14.066Z,47.30
2017-02-13T07:59:12.995Z,47.10
2017-02-13T08:00:12.267Z,48.40
2017-02-13T08:01:13.079Z,48.00
2017-02-13T08:02:12.097Z,48.10
2017-02-13T08:03:12.325Z,48.30
2017-02-13T08:04:13.043Z,47.80
2017-02-13T08:05:13.003Z,47.80
2017-02-13T08:06:13.572Z,47.90
2017-02-13T08:07:12.330Z,47.50
2017-02-13T08:08:12.312Z,47.70
2017-02-13T08:09:13.229Z,46.60
2017-02-13T08:10:13.196Z,47.70
2017-02-13T08:11:10.672Z,is
2017-02-13T08:12:11.974Z,48.00
2017-02-13T08:13:12.714Z,48.00
2017-02-13T08:14:12.574Z,48.10
2017-02-13T08:15:11.602Z,48.10
2017-02-13T08:16:10.422Z,is
2017-02-13T08:17:11.976Z,48.20
2017-02-13T08:18:12.085Z,48.20
2017-02-13T08:19:12.559Z,48.30
2017-02-13T08:20:13.139Z,48.40
2017-02-13T08:21:12.241Z,48.50
2017-02-13T08:22:13.734Z,48.50
2017-02-13T08:23:12.262Z,48.50
2017-02-13T08:24:12.312Z,48.50
2017-02-13T08:25:11.176Z,is
2017-02-13T08:26:12.061Z,48.60
2017-02-13T08:27:12.083Z,48.80
2017-02-13T08:28:12.338Z,48.60
2017-02-13T08:29:13.150Z,48.70
2017-02-13T08:30:12.279Z,48.80
2017-02-13T08:31:13.196Z,48.90
2017-02-13T08:32:10.533Z,is
2017-02-13T08:33:12.029Z,48.80
2017-02-13T08:34:12.724Z,49.00
2017-02-13T08:35:12.524Z,48.90
2017-02-13T08:36:13.053Z,49.00
2017-02-13T08:37:10.442Z,is
2017-02-13T08:38:12.089Z,49.00
2017-02-13T08:39:12.473Z,49.00
2017-02-13T08:40:12.428Z,49.00
2017-02-13T08:41:11.522Z,49.00
2017-02-13T08:42:11.386Z,49.00
2017-02-13T08:43:11.991Z,49.10
2017-02-13T08:44:12.291Z,49.00
2017-02-13T08:45:13.943Z,49.30
2017-02-13T08:46:11.994Z,49.00
2017-02-13T08:47:12.511Z,49.00
2017-02-13T08:48:11.950Z,49.20
2017-02-13T08:49:12.707Z,49.20
2017-02-13T08:50:11.565Z,49.30
2017-02-13T08:51:10.317Z,is
2017-02-13T08:52:11.531Z,49.30
2017-02-13T08:53:11.568Z,49.30
2017-02-13T08:54:09.338Z,is
2017-02-13T08:55:12.486Z,49.40
2017-02-13T08:56:12.107Z,49.50
2017-02-13T08:57:13.922Z,49.50
2017-02-13T08:58:15.535Z,49.50
2017-02-13T08:59:11.617Z,49.50
2017-02-13T09:00:12.355Z,49.50
2017-02-13T09:01:12.079Z,49.50
2017-02-13T09:02:12.119Z,49.60
2017-02-13T09:03:12.963Z,49.70
2017-02-13T09:04:11.863Z,49.60
2017-02-13T09:05:11.873Z,49.50
2017-02-13T09:06:12.836Z,49.50
2017-02-13T09:07:13.622Z,49.70
2017-02-13T09:08:14.542Z,49.80
2017-02-13T09:09:13.072Z,49.70
2017-02-13T09:10:13.187Z,49.60
2017-02-13T09:11:13.143Z,49.60
2017-02-13T09:12:12.268Z,49.70
2017-02-13T09:13:12.172Z,49.80
2017-02-13T09:14:12.586Z,49.60
2017-02-13T09:15:12.182Z,49.80
2017-02-13T09:16:10.763Z,is
2017-02-13T09:17:12.745Z,50.00
2017-02-13T09:18:12.573Z,49.90
2017-02-13T09:19:12.109Z,49.90
2017-02-13T09:20:12.273Z,50.00
2017-02-13T09:21:13.757Z,50.10
2017-02-13T09:22:12.512Z,49.90
2017-02-13T09:23:12.274Z,50.00
2017-02-13T09:24:12.256Z,50.00
2017-02-13T09:25:10.887Z,is
2017-02-13T09:26:10.741Z,is
2017-02-13T09:27:12.251Z,50.00
2017-02-13T09:28:14.004Z,50.10
2017-02-13T09:29:10.847Z,is
2017-02-13T09:30:12.606Z,50.00
2017-02-13T09:31:13.312Z,50.10
2017-02-13T09:32:14.113Z,50.10
2017-02-13T09:33:12.184Z,50.00
2017-02-13T09:34:13.765Z,50.10
2017-02-13T09:35:12.482Z,50.10
2017-02-13T09:36:12.292Z,50.10
2017-02-13T09:37:12.726Z,50.10
2017-02-13T09:38:11.746Z,50.00
2017-02-13T09:39:10.713Z,is
2017-02-13T09:40:10.266Z,is
2017-02-13T09:41:10.452Z,is
2017-02-13T09:42:11.898Z,50.00
2017-02-13T09:43:12.633Z,50.10
2017-02-13T09:44:11.838Z,50.00
2017-02-13T09:45:12.446Z,50.10
2017-02-13T09:46:11.380Z,50.00
2017-02-13T09:47:12.039Z,50.10
2017-02-13T09:48:12.862Z,50.10
2017-02-13T09:49:11.903Z,50.00
2017-02-13T09:50:12.156Z,50.00
2017-02-13T09:51:12.094Z,is
2017-02-13T09:52:14.401Z,50.10
2017-02-13T09:53:11.373Z,50.00
2017-02-13T09:54:14.126Z,50.10
2017-02-13T09:55:10.614Z,is
2017-02-13T09:56:12.271Z,50.10
2017-02-13T09:57:12.679Z,50.00
2017-02-13T09:58:11.863Z,50.00
2017-02-13T09:59:12.033Z,50.00
2017-02-13T10:00:13.012Z,50.10
2017-02-13T10:01:12.755Z,50.10
2017-02-13T10:02:12.521Z,50.00
2017-02-13T10:03:11.385Z,50.00
2017-02-13T10:04:11.561Z,50.00
2017-02-13T10:05:15.597Z,50.10
2017-02-13T10:06:11.449Z,50.00
2017-02-13T10:07:12.976Z,50.00
2017-02-13T10:08:12.081Z,50.00
2017-02-13T10:09:12.727Z,50.10
2017-02-13T10:10:12.361Z,50.10
2017-02-13T10:11:13.164Z,50.20
2017-02-13T10:12:12.902Z,50.10
2017-02-13T10:13:13.677Z,50.10
2017-02-13T10:14:12.336Z,50.10
2017-02-13T10:15:13.114Z,50.10
2017-02-13T10:16:13.988Z,50.10
2017-02-13T10:17:13.755Z,50.00
2017-02-13T10:18:12.086Z,50.00
2017-02-13T10:19:13.699Z,50.10
2017-02-13T10:20:12.352Z,50.00
2017-02-13T10:21:11.529Z,50.00
2017-02-13T10:22:11.997Z,50.10
2017-02-13T10:23:12.910Z,50.40
2017-02-13T10:24:12.771Z,50.10
2017-02-13T10:25:14.385Z,50.10
2017-02-13T10:26:12.010Z,50.10
2017-02-13T10:27:09.983Z,is
2017-02-13T10:28:12.385Z,50.00
2017-02-13T10:29:11.443Z,50.00
2017-02-13T10:30:12.195Z,50.10
2017-02-13T10:31:13.024Z,50.10
2017-02-13T10:32:12.724Z,50.00
2017-02-13T10:33:11.799Z,50.10
2017-02-13T10:34:09.238Z,is
2017-02-13T10:35:14.196Z,50.10
2017-02-13T10:36:12.313Z,50.10
2017-02-13T10:37:10.878Z,is
2017-02-13T10:38:12.337Z,50.00
2017-02-13T10:39:13.121Z,50.10
2017-02-13T10:40:12.246Z,50.00
2017-02-13T10:41:12.326Z,50.00
2017-02-13T10:42:18.196Z,50.10
2017-02-13T10:43:13.395Z,50.10
2017-02-13T10:44:11.355Z,50.00
2017-02-13T10:45:13.094Z,49.20
2017-02-13T10:46:13.786Z,50.10
2017-02-13T10:47:09.123Z,is
2017-02-13T10:48:12.566Z,50.10
2017-02-13T10:49:11.704Z,50.00
2017-02-13T10:50:12.489Z,50.10
2017-02-13T10:51:11.874Z,50.00
2017-02-13T10:52:11.960Z,50.00
2017-02-13T10:53:11.968Z,50.00
2017-02-13T10:54:12.874Z,50.10
2017-02-13T10:55:12.681Z,50.10
2017-02-13T10:56:12.264Z,50.00
2017-02-13T10:57:14.116Z,50.00
2017-02-13T10:58:12.266Z,50.00
2017-02-13T10:59:13.042Z,50.10
2017-02-13T11:00:10.867Z,is
2017-02-13T11:01:12.772Z,50.10
2017-02-13T11:02:12.268Z,50.10
2017-02-13T11:03:12.272Z,50.00
2017-02-13T11:04:12.282Z,50.00
2017-02-13T11:05:12.372Z,50.00
2017-02-13T11:06:11.294Z,50.00
2017-02-13T11:07:12.946Z,50.10
2017-02-13T11:08:13.546Z,50.10
2017-02-13T11:09:10.309Z,is
2017-02-13T11:10:12.058Z,50.10
2017-02-13T11:11:12.975Z,50.10
2017-02-13T11:12:12.085Z,50.10
2017-02-13T11:13:11.994Z,50.20
2017-02-13T11:14:12.349Z,50.10
2017-02-13T11:15:12.386Z,50.00
2017-02-13T11:16:11.953Z,50.00
2017-02-13T11:17:12.525Z,50.10
2017-02-13T11:18:11.926Z,50.00
2017-02-13T11:19:12.510Z,50.00
2017-02-13T11:20:12.859Z,50.20
2017-02-13T11:21:12.794Z,50.20
2017-02-13T11:22:13.299Z,50.00
2017-02-13T11:23:12.286Z,50.20
2017-02-13T11:24:12.192Z,50.00
2017-02-13T11:25:12.467Z,50.00
2017-02-13T11:26:12.290Z,50.00
2017-02-13T11:27:12.470Z,50.20
2017-02-13T11:28:12.607Z,50.10
2017-02-13T11:29:11.788Z,50.00
2017-02-13T11:30:13.482Z,50.20
2017-02-13T11:31:11.485Z,50.00
2017-02-13T11:32:11.446Z,50.20
2017-02-13T11:33:11.566Z,50.00
2017-02-13T11:34:12.201Z,50.10
2017-02-13T11:35:12.914Z,50.30
2017-02-13T11:36:12.645Z,50.00
2017-02-13T11:37:12.322Z,50.00
2017-02-13T11:38:14.004Z,50.10
2017-02-13T11:39:12.505Z,50.10
2017-02-13T11:40:14.704Z,50.10
2017-02-13T11:41:12.754Z,50.00
2017-02-13T11:42:11.853Z,50.00
2017-02-13T11:43:11.934Z,50.00
2017-02-13T11:44:12.263Z,50.00
2017-02-13T11:45:10.733Z,is
2017-02-13T11:46:12.512Z,50.00
2017-02-13T11:47:12.355Z,50.10
2017-02-13T11:48:12.475Z,50.10
2017-02-13T11:49:11.442Z,50.20
2017-02-13T11:50:10.443Z,is
2017-02-13T11:51:12.474Z,50.10
2017-02-13T11:52:11.642Z,50.20
2017-02-13T11:53:11.823Z,50.00
2017-02-13T11:54:13.771Z,50.20
2017-02-13T11:55:11.632Z,50.00
2017-02-13T11:56:12.617Z,50.20
2017-02-13T11:57:12.144Z,50.20
2017-02-13T11:58:11.102Z,is
2017-02-13T11:59:12.355Z,50.20
2017-02-13T12:00:12.944Z,50.20
2017-02-13T12:01:12.093Z,50.00
2017-02-13T12:02:13.758Z,50.20
2017-02-13T12:03:12.868Z,50.20
2017-02-13T12:04:09.840Z,is
2017-02-13T12:05:13.197Z,50.20
2017-02-13T12:06:12.350Z,50.20
2017-02-13T12:07:13.144Z,50.20
2017-02-13T12:08:13.014Z,50.20
2017-02-13T12:09:14.593Z,50.20
2017-02-13T12:10:11.657Z,50.20
2017-02-13T12:11:10.484Z,is
2017-02-13T12:12:13.577Z,50.20
2017-02-13T12:13:12.262Z,50.20
2017-02-13T12:14:12.293Z,50.20
2017-02-13T12:15:12.267Z,50.20
2017-02-13T12:16:12.269Z,50.00
2017-02-13T12:17:12.355Z,50.20
2017-02-13T12:18:12.109Z,50.20
2017-02-13T12:19:09.766Z,is
2017-02-13T12:20:13.076Z,50.20
2017-02-13T12:21:13.945Z,50.20
2017-02-13T12:22:10.967Z,is
2017-02-13T12:23:09.950Z,is
2017-02-13T12:24:12.481Z,50.20
2017-02-13T12:25:11.333Z,50.10
2017-02-13T12:26:12.555Z,50.20
2017-02-13T12:27:12.175Z,50.20
2017-02-13T12:28:12.320Z,50.20
2017-02-13T12:29:13.093Z,50.20
2017-02-13T12:30:14.036Z,50.20
2017-02-13T12:31:12.482Z,50.20
2017-02-13T12:32:12.505Z,50.30
2017-02-13T12:33:12.720Z,50.20
2017-02-13T12:34:12.635Z,50.50
2017-02-13T12:35:13.141Z,50.20
2017-02-13T12:36:12.351Z,50.20
2017-02-13T12:37:11.311Z,50.20
2017-02-13T12:38:11.384Z,50.20
2017-02-13T12:39:11.446Z,50.20
2017-02-13T12:40:11.696Z,50.20
2017-02-13T12:41:13.491Z,50.20
2017-02-13T12:42:13.096Z,50.20
2017-02-13T12:43:11.241Z,is
2017-02-13T12:45:32.155Z,50.20
2017-02-13T12:45:32.765Z,50.20
2017-02-13T12:46:12.163Z,50.10
2017-02-13T12:47:12.966Z,50.20
2017-02-13T12:48:12.053Z,50.20
2017-02-13T12:49:12.491Z,49.30
2017-02-13T12:50:11.513Z,50.20
2017-02-13T12:51:11.665Z,50.20
2017-02-13T12:52:12.266Z,50.20
2017-02-13T12:53:12.388Z,50.20
2017-02-13T12:54:12.093Z,50.20
2017-02-13T12:55:12.448Z,50.10
2017-02-13T12:56:12.834Z,50.20
2017-02-13T12:57:11.845Z,50.20
2017-02-13T12:58:11.939Z,50.20
2017-02-13T12:59:11.913Z,50.20